Time;durP1;ratioP1;P1;durP2;ratioP2;P2;SDS_P1;SDS_P2;PMS_P1;PMS_P2;Temp;Humidity;BMP_temperature;BMP_pressure;BME280_temperature;BME280_humidity;BME280_pressure;Samples;Min_cycle;Max_cycle;Signal;HPM_P1;HPM_P2
2023/05/13 00:00:30;;;;;;;;;;;;;;;9.59;100.00;95982.28;4967480;28;19949;-83
2023/05/13 00:02:57;;;;;;;;;;;;;;;9.56;100.00;95992.69;4970569;28;19953;-83
2023/05/13 00:05:23;;;;;;;;;;;;;;;9.57;100.00;95995.16;4957980;28;19997;-83
2023/05/13 00:07:50;;;;;;;;;;;;;;;9.57;100.00;95983.56;4965450;28;19954;-82
2023/05/13 00:10:19;;;;;;;;;;;;;;;9.61;100.00;95984.75;4958626;28;19991;-83
2023/05/13 00:12:45;;;;;;;;;;;;;;;9.65;100.00;95988.63;4960072;28;19950;-83
2023/05/13 00:15:12;;;;;;;;;;;;;;;9.68;100.00;95988.97;4968038;28;19961;-83
2023/05/13 00:17:40;;;;;;;;;;;;;;;9.62;100.00;95981.81;4952196;28;19962;-83
2023/05/13 00:20:08;;;;;;;;;;;;;;;9.60;100.00;95975.84;4958455;28;19951;-83
2023/05/13 00:22:34;;;;;;;;;;;;;;;9.54;100.00;95990.22;4967127;28;19951;-83
2023/05/13 00:25:01;;;;;;;;;;;;;;;9.47;100.00;95986.81;4969690;28;20037;-83
2023/05/13 00:27:28;;;;;;;;;;;;;;;9.39;100.00;95982.59;4977868;28;19948;-83
2023/05/13 00:29:54;;;;;;;;;;;;;;;9.33;100.00;95980.00;4966404;28;20031;-83
2023/05/13 00:32:21;;;;;;;;;;;;;;;9.31;100.00;95982.13;4968078;28;19946;-83
2023/05/13 00:34:50;;;;;;;;;;;;;;;9.27;100.00;95984.44;4969416;28;19948;-82
2023/05/13 00:37:16;;;;;;;;;;;;;;;9.18;100.00;95987.72;4963787;28;20040;-83
2023/05/13 00:39:43;;;;;;;;;;;;;;;9.15;100.00;95982.78;4977185;28;19949;-82
2023/05/13 00:42:11;;;;;;;;;;;;;;;9.19;100.00;95986.63;4965967;28;19956;-80
2023/05/13 00:44:38;;;;;;;;;;;;;;;9.27;100.00;95978.25;4986939;28;19951;-82
2023/05/13 00:47:05;;;;;;;;;;;;;;;9.28;100.00;95986.09;4961140;28;19970;-83
2023/05/13 00:49:32;;;;;;;;;;;;;;;9.28;100.00;95983.38;4961896;28;20019;-83
2023/05/13 00:52:00;;;;;;;;;;;;;;;9.28;100.00;95985.25;4979027;28;19955;-83
2023/05/13 00:54:28;;;;;;;;;;;;;;;9.34;100.00;95990.56;4965667;28;19986;-82
2023/05/13 00:56:55;;;;;;;;;;;;;;;9.33;100.00;95997.00;4976091;28;19947;-83
2023/05/13 00:59:23;;;;;;;;;;;;;;;9.35;100.00;95991.38;4967759;28;19977;-83
2023/05/13 01:01:55;;;;;;;;;;;;;;;9.29;100.00;96000.38;4967959;28;19953;-83
2023/05/13 01:04:27;;;;;;;;;;;;;;;9.19;100.00;95998.22;4974408;28;20058;-83
2023/05/13 01:06:58;;;;;;;;;;;;;;;9.17;100.00;95994.16;4978698;28;20031;-83
2023/05/13 01:09:32;;;;;;;;;;;;;;;9.18;100.00;95995.81;4977894;28;19994;-82
2023/05/13 01:12:03;;;;;;;;;;;;;;;9.20;100.00;96004.44;4967712;28;19954;-83
2023/05/13 01:14:32;;;;;;;;;;;;;;;9.17;100.00;95994.16;4984447;28;19954;-83
2023/05/13 01:17:02;;;;;;;;;;;;;;;9.07;100.00;95995.53;4968802;28;20039;-82
2023/05/13 01:19:37;;;;;;;;;;;;;;;9.09;100.00;95987.22;4959988;28;19970;-83
2023/05/13 01:22:06;;;;;;;;;;;;;;;9.07;100.00;96005.47;4966047;28;19959;-82
2023/05/13 01:24:35;;;;;;;;;;;;;;;9.02;100.00;95997.25;4966933;28;19947;-83
2023/05/13 01:27:03;;;;;;;;;;;;;;;9.01;100.00;95995.63;4977507;28;19943;-83
2023/05/13 01:29:30;;;;;;;;;;;;;;;8.97;100.00;95997.94;4967528;28;19977;-83
2023/05/13 01:31:58;;;;;;;;;;;;;;;8.93;100.00;96004.81;4964938;28;19978;-83
2023/05/13 01:34:26;;;;;;;;;;;;;;;8.92;100.00;96008.59;4961125;28;19952;-83
2023/05/13 01:36:54;;;;;;;;;;;;;;;8.89;100.00;96000.13;4966857;28;19961;-83
2023/05/13 01:39:24;;;;;;;;;;;;;;;8.84;100.00;96011.59;4963544;28;19956;-83
2023/05/13 01:41:53;;;;;;;;;;;;;;;8.74;100.00;96003.25;4952927;28;19950;-82
2023/05/13 01:44:20;;;;;;;;;;;;;;;8.74;100.00;96005.94;4964639;28;20063;-83
2023/05/13 01:46:49;;;;;;;;;;;;;;;8.81;100.00;95995.91;4950296;28;19955;-83
2023/05/13 01:49:15;;;;;;;;;;;;;;;8.84;100.00;96000.84;4963725;28;19953;-83
2023/05/13 01:51:42;;;;;;;;;;;;;;;8.86;100.00;96000.56;4977775;28;19950;-83
2023/05/13 01:54:09;;;;;;;;;;;;;;;8.80;100.00;96012.25;4969563;28;19942;-83
2023/05/13 01:56:41;;;;;;;;;;;;;;;8.76;100.00;96008.41;4979820;28;19944;-82
2023/05/13 01:59:08;;;;;;;;;;;;;;;8.77;100.00;96010.84;4968229;28;20218;-82
2023/05/13 02:01:35;;;;;;;;;;;;;;;8.74;100.00;96011.31;4970059;28;19947;-82
2023/05/13 02:04:02;;;;;;;;;;;;;;;8.72;100.00;96014.22;4973211;28;19995;-83
2023/05/13 02:06:31;;;;;;;;;;;;;;;8.68;100.00;96013.03;4967829;28;19948;-82
2023/05/13 02:08:58;;;;;;;;;;;;;;;8.62;100.00;96008.56;4970888;28;19949;-82
2023/05/13 02:11:25;;;;;;;;;;;;;;;8.61;100.00;96011.47;4959882;28;19958;-83
2023/05/13 02:13:53;;;;;;;;;;;;;;;8.65;100.00;96020.75;4979495;28;19948;-83
2023/05/13 02:16:20;;;;;;;;;;;;;;;8.69;100.00;96013.84;4969322;28;19946;-83
2023/05/13 02:18:46;;;;;;;;;;;;;;;8.73;100.00;96013.19;4965889;28;20055;-83
2023/05/13 02:21:13;;;;;;;;;;;;;;;8.80;100.00;96015.78;4972403;28;19955;-83
2023/05/13 02:23:40;;;;;;;;;;;;;;;8.85;100.00;96012.41;4966187;28;19999;-83
2023/05/13 02:26:07;;;;;;;;;;;;;;;8.79;100.00;96003.38;4971721;28;19967;-83
2023/05/13 02:28:33;;;;;;;;;;;;;;;8.77;100.00;96005.47;4968086;28;20041;-83
2023/05/13 02:31:01;;;;;;;;;;;;;;;8.76;100.00;96005.72;4969547;28;19976;-83
2023/05/13 02:33:29;;;;;;;;;;;;;;;8.71;100.00;96007.19;4970318;28;19952;-83
2023/05/13 02:35:56;;;;;;;;;;;;;;;8.71;100.00;96009.06;4973447;28;19946;-83
2023/05/13 02:38:23;;;;;;;;;;;;;;;8.69;100.00;96009.28;4970680;28;19965;-83
2023/05/13 02:40:50;;;;;;;;;;;;;;;8.70;100.00;96015.50;4968734;28;19979;-83
2023/05/13 02:43:17;;;;;;;;;;;;;;;8.76;100.00;96014.59;4969587;28;19952;-83
2023/05/13 02:45:55;;;;;;;;;;;;;;;8.80;100.00;96015.78;4970251;28;20011;-83
2023/05/13 02:48:24;;;;;;;;;;;;;;;8.85;100.00;96015.91;4963494;28;19959;-83
2023/05/13 02:50:51;;;;;;;;;;;;;;;8.80;100.00;96014.97;4971017;28;19962;-83
2023/05/13 02:53:18;;;;;;;;;;;;;;;8.76;100.00;96014.59;4971348;28;20189;-82
2023/05/13 02:55:53;;;;;;;;;;;;;;;8.77;100.00;96012.72;4971533;28;19947;-82
2023/05/13 02:58:23;;;;;;;;;;;;;;;8.82;100.00;96023.63;4971281;28;19952;-83
2023/05/13 03:00:50;;;;;;;;;;;;;;;8.88;100.00;96026.22;4971238;28;19956;-82
2023/05/13 03:03:17;;;;;;;;;;;;;;;8.85;100.00;96018.59;4971414;28;19946;-83
2023/05/13 03:05:45;;;;;;;;;;;;;;;8.81;100.00;96017.44;4959633;28;19987;-83
2023/05/13 03:08:12;;;;;;;;;;;;;;;8.81;100.00;96027.38;4970005;28;19955;-83
2023/05/13 03:10:39;;;;;;;;;;;;;;;8.82;100.00;96029.84;4961809;28;19957;-83
2023/05/13 03:13:06;;;;;;;;;;;;;;;8.82;100.00;96027.16;4976363;28;19948;-83
2023/05/13 03:15:32;;;;;;;;;;;;;;;8.83;100.00;96030.66;4964437;28;19993;-83
2023/05/13 03:18:00;;;;;;;;;;;;;;;8.76;100.00;96030.75;4972973;28;19966;-83
2023/05/13 03:20:26;;;;;;;;;;;;;;;8.78;100.00;96027.81;4961965;28;19950;-82
2023/05/13 03:22:54;;;;;;;;;;;;;;;8.85;100.00;96034.75;4960179;28;19963;-83
2023/05/13 03:25:21;;;;;;;;;;;;;;;8.85;100.00;96040.13;4979535;28;19959;-82
2023/05/13 03:27:53;;;;;;;;;;;;;;;8.90;100.00;96037.59;4966480;28;20043;-83
2023/05/13 03:30:22;;;;;;;;;;;;;;;8.87;100.00;96038.06;4982650;28;20023;-83
2023/05/13 03:33:00;;;;;;;;;;;;;;;8.87;100.00;96040.75;4970631;28;19951;-83
2023/05/13 03:35:27;;;;;;;;;;;;;;;8.88;100.00;96047.78;4964488;28;20017;-82
2023/05/13 03:37:56;;;;;;;;;;;;;;;8.92;100.00;96048.97;4967197;28;20040;-83
2023/05/13 03:40:23;;;;;;;;;;;;;;;8.95;100.00;96047.69;4964210;28;19951;-82
2023/05/13 03:42:52;;;;;;;;;;;;;;;8.96;100.00;96042.06;4984108;28;19948;-82
2023/05/13 03:45:20;;;;;;;;;;;;;;;8.96;100.00;96049.31;4957170;28;19984;-82
2023/05/13 03:47:50;;;;;;;;;;;;;;;8.95;100.00;96045.81;4968953;28;19942;-82
2023/05/13 03:50:18;;;;;;;;;;;;;;;8.96;100.00;96052.84;4958942;28;20120;-82
2023/05/13 03:52:45;;;;;;;;;;;;;;;8.94;100.00;96049.56;4965873;28;19955;-83
2023/05/13 03:55:14;;;;;;;;;;;;;;;8.97;100.00;96048.28;4981309;28;19951;-83
2023/05/13 03:57:42;;;;;;;;;;;;;;;9.00;100.00;96053.22;4966732;28;20024;-83
2023/05/13 04:00:10;;;;;;;;;;;;;;;9.01;100.00;96053.00;4956630;28;19941;-83
2023/05/13 04:02:41;;;;;;;;;;;;;;;9.03;100.00;96052.75;4968805;28;19954;-83
2023/05/13 04:05:08;;;;;;;;;;;;;;;9.02;100.00;96054.63;4981163;28;19957;-83
2023/05/13 04:07:35;;;;;;;;;;;;;;;9.02;100.00;96051.94;4962736;28;20192;-83
2023/05/13 04:10:02;;;;;;;;;;;;;;;9.06;100.00;96058.50;4968313;28;20031;-83
2023/05/13 04:12:32;;;;;;;;;;;;;;;9.14;100.00;96064.63;4969428;28;19946;-83
2023/05/13 04:15:00;;;;;;;;;;;;;;;9.18;100.00;96060.44;4971677;28;19947;-83
2023/05/13 04:17:27;;;;;;;;;;;;;;;9.13;100.00;96062.97;4967993;28;19976;-83
2023/05/13 04:19:55;;;;;;;;;;;;;;;9.11;100.00;96068.59;4966144;28;19963;-82
2023/05/13 04:22:21;;;;;;;;;;;;;;;9.16;100.00;96074.13;4983086;28;19995;-83
2023/05/13 04:24:50;;;;;;;;;;;;;;;9.22;100.00;96067.00;4963966;28;19945;-83
2023/05/13 04:27:17;;;;;;;;;;;;;;;9.25;100.00;96075.47;4960936;28;19990;-82
2023/05/13 04:29:46;;;;;;;;;;;;;;;9.28;100.00;96071.47;4967128;28;20168;-82
2023/05/13 04:32:16;;;;;;;;;;;;;;;9.33;100.00;96072.44;4965754;28;19965;-82
2023/05/13 04:34:43;;;;;;;;;;;;;;;9.39;100.00;96078.78;4964322;28;19947;-83
2023/05/13 04:37:10;;;;;;;;;;;;;;;9.33;100.00;96082.41;4968649;28;19957;-81
2023/05/13 04:39:37;;;;;;;;;;;;;;;9.32;100.00;96084.28;4969180;28;19946;-80
2023/05/13 04:42:04;;;;;;;;;;;;;;;9.38;100.00;96085.22;4961605;28;19944;-82
2023/05/13 04:44:33;;;;;;;;;;;;;;;9.41;100.00;96079.38;4962702;28;19947;-82
2023/05/13 04:47:02;;;;;;;;;;;;;;;9.38;100.00;96088.75;4984533;28;19952;-82
2023/05/13 04:49:29;;;;;;;;;;;;;;;9.36;100.00;96088.13;4962925;28;20027;-82
2023/05/13 04:51:56;;;;;;;;;;;;;;;9.38;100.00;96093.31;4958156;28;20034;-82
2023/05/13 04:54:23;;;;;;;;;;;;;;;9.42;100.00;96097.19;4957375;28;19947;-83
2023/05/13 04:56:51;;;;;;;;;;;;;;;9.44;100.00;96089.72;4969086;28;20044;-82
2023/05/13 04:59:18;;;;;;;;;;;;;;;9.47;100.00;96092.75;4966888;28;19979;-83
2023/05/13 05:01:44;;;;;;;;;;;;;;;9.56;100.00;96093.25;4961970;28;19947;-83
2023/05/13 05:04:13;;;;;;;;;;;;;;;9.59;100.00;96095.50;4961613;28;20009;-83
2023/05/13 05:06:41;;;;;;;;;;;;;;;9.69;100.00;96100.34;4965175;28;19946;-83
2023/05/13 05:09:08;;;;;;;;;;;;;;;9.64;100.00;96098.31;4959382;28;20011;-82
2023/05/13 05:11:36;;;;;;;;;;;;;;;9.72;100.00;96107.94;4968283;28;19962;-83
2023/05/13 05:14:03;;;;;;;;;;;;;;;9.79;100.00;96109.47;4962670;28;19953;-83
2023/05/13 05:16:30;;;;;;;;;;;;;;;9.83;100.00;96110.69;4968427;28;20022;-83
2023/05/13 05:18:58;;;;;;;;;;;;;;;9.92;100.00;96104.94;4968416;28;19996;-82
2023/05/13 05:21:27;;;;;;;;;;;;;;;9.97;100.00;96113.97;4973017;28;19998;-82
2023/05/13 05:23:54;;;;;;;;;;;;;;;9.96;100.00;96111.50;4979784;28;19976;-83
2023/05/13 05:26:21;;;;;;;;;;;;;;;9.98;100.00;96114.78;4962630;28;19952;-83
2023/05/13 05:28:48;;;;;;;;;;;;;;;9.95;100.00;96115.28;4980414;28;20042;-82
2023/05/13 05:31:16;;;;;;;;;;;;;;;9.95;100.00;96116.09;4967946;28;19985;-82
2023/05/13 05:33:43;;;;;;;;;;;;;;;9.96;100.00;96115.03;4965632;28;19946;-83
2023/05/13 05:36:11;;;;;;;;;;;;;;;10.00;100.00;96118.09;4983773;28;20022;-83
2023/05/13 05:38:40;;;;;;;;;;;;;;;10.06;100.00;96120.69;4963651;28;19950;-83
2023/05/13 05:41:07;;;;;;;;;;;;;;;10.09;100.00;96114.00;4975921;28;20051;-83
2023/05/13 05:43:34;;;;;;;;;;;;;;;10.13;100.00;96115.16;4967744;28;19988;-83
2023/05/13 05:46:02;;;;;;;;;;;;;;;10.19;100.00;96119.69;4960932;28;19973;-83
2023/05/13 05:48:29;;;;;;;;;;;;;;;10.22;100.00;96124.59;4969808;28;20003;-83
2023/05/13 05:50:56;;;;;;;;;;;;;;;10.28;100.00;96123.69;4956715;28;19968;-83
2023/05/13 05:53:30;;;;;;;;;;;;;;;10.30;100.00;96120.72;4963170;28;19945;-83
2023/05/13 05:55:58;;;;;;;;;;;;;;;10.34;100.00;96109.25;4961691;28;19948;-83
2023/05/13 05:58:26;;;;;;;;;;;;;;;10.33;100.00;96123.78;4965976;28;19946;-83
2023/05/13 06:00:53;;;;;;;;;;;;;;;10.36;100.00;96123.34;4964386;28;19960;-83
2023/05/13 06:03:20;;;;;;;;;;;;;;;10.43;100.00;96124.03;4987128;28;19946;-83
2023/05/13 06:05:47;;;;;;;;;;;;;;;10.49;100.00;96122.25;4958340;28;19948;-83
2023/05/13 06:08:13;;;;;;;;;;;;;;;10.56;100.00;96112.97;4962292;28;20046;-83
2023/05/13 06:10:40;;;;;;;;;;;;;;;10.65;100.00;96115.31;4959422;28;19945;-83
2023/05/13 06:13:08;;;;;;;;;;;;;;;10.77;100.00;96113.44;4964119;28;19977;-83
2023/05/13 06:15:36;;;;;;;;;;;;;;;10.87;100.00;96117.19;4961409;28;19997;-83
2023/05/13 06:18:04;;;;;;;;;;;;;;;10.90;100.00;96113.16;4970572;28;19965;-83
2023/05/13 06:20:33;;;;;;;;;;;;;;;10.90;100.00;96123.97;4962246;28;19959;-83
2023/05/13 06:22:59;;;;;;;;;;;;;;;10.85;100.00;96113.06;4979516;28;19946;-83
2023/05/13 06:25:26;;;;;;;;;;;;;;;10.91;100.00;96112.13;4961629;28;20067;-83
2023/05/13 06:27:53;;;;;;;;;;;;;;;11.06;100.00;96112.44;4963434;28;19942;-83
2023/05/13 06:30:24;;;;;;;;;;;;;;;11.15;100.00;96108.28;4965172;28;19941;-83
2023/05/13 06:32:52;;;;;;;;;;;;;;;11.29;100.00;96109.69;4965411;28;19965;-83
2023/05/13 06:35:19;;;;;;;;;;;;;;;11.44;100.00;96111.03;4958643;28;19951;-83
2023/05/13 06:37:46;;;;;;;;;;;;;;;11.54;100.00;96103.13;4961847;28;19956;-83
2023/05/13 06:40:12;;;;;;;;;;;;;;;11.62;100.00;96116.25;4982502;28;19950;-83
2023/05/13 06:42:42;;;;;;;;;;;;;;;11.57;100.00;96110.75;4956958;28;19949;-84
2023/05/13 06:45:22;;;;;;;;;;;;;;;11.56;100.00;96106.41;4970800;28;19942;-83
2023/05/13 06:47:51;;;;;;;;;;;;;;;11.57;100.00;96108.84;4965592;28;20018;-83
2023/05/13 06:50:18;;;;;;;;;;;;;;;11.55;100.00;96099.34;4962071;28;19945;-83
2023/05/13 06:52:46;;;;;;;;;;;;;;;11.58;100.00;96101.56;4968401;28;19958;-83
2023/05/13 06:55:13;;;;;;;;;;;;;;;11.69;100.00;96109.63;4969225;28;19958;-83
2023/05/13 06:57:42;;;;;;;;;;;;;;;11.78;100.00;96101.97;4959741;28;19941;-84
2023/05/13 07:00:09;;;;;;;;;;;;;;;11.86;100.00;96106.16;4976885;28;19954;-83
2023/05/13 07:02:35;;;;;;;;;;;;;;;11.90;100.00;96112.72;4968216;28;19956;-83
2023/05/13 07:05:04;;;;;;;;;;;;;;;11.99;100.00;96108.56;4966956;28;19948;-83
2023/05/13 07:07:30;;;;;;;;;;;;;;;12.08;100.00;96098.94;4968854;28;19951;-83
2023/05/13 07:09:57;;;;;;;;;;;;;;;12.17;100.00;96108.28;4970475;28;20027;-84
2023/05/13 07:12:24;;;;;;;;;;;;;;;12.25;100.00;96109.81;4972670;28;19979;-83
2023/05/13 07:14:51;;;;;;;;;;;;;;;12.31;100.00;96108.81;4964402;28;19953;-83
2023/05/13 07:17:18;;;;;;;;;;;;;;;12.38;100.00;96112.16;4967225;28;19968;-83
2023/05/13 07:19:45;;;;;;;;;;;;;;;12.41;100.00;96098.97;4976235;28;19960;-83
2023/05/13 07:22:13;;;;;;;;;;;;;;;12.45;100.00;96110.09;4972481;28;19955;-84
2023/05/13 07:24:40;;;;;;;;;;;;;;;12.52;100.00;96116.16;4968308;28;19955;-83
2023/05/13 07:27:08;;;;;;;;;;;;;;;12.59;100.00;96114.09;4966125;28;19950;-83
2023/05/13 07:29:35;;;;;;;;;;;;;;;12.70;100.00;96113.19;4978387;28;19947;-83
2023/05/13 07:32:03;;;;;;;;;;;;;;;12.77;100.00;96105.69;4967964;28;19964;-83
2023/05/13 07:34:31;;;;;;;;;;;;;;;12.88;100.00;96104.78;4966536;28;20000;-83
2023/05/13 07:36:58;;;;;;;;;;;;;;;12.99;100.00;96102.19;4970472;28;19990;-83
2023/05/13 07:39:26;;;;;;;;;;;;;;;13.10;100.00;96095.84;4959838;28;19941;-83
2023/05/13 07:41:53;;;;;;;;;;;;;;;13.20;100.00;96101.41;4961790;28;19947;-84
2023/05/13 07:44:20;;;;;;;;;;;;;;;13.29;100.00;96094.47;4968362;28;19951;-83
2023/05/13 07:46:47;;;;;;;;;;;;;;;13.32;100.00;96091.25;4971015;28;19952;-84
2023/05/13 07:49:14;;;;;;;;;;;;;;;13.36;100.00;96095.09;4969665;28;19950;-84
2023/05/13 07:51:41;;;;;;;;;;;;;;;13.48;100.00;96092.25;4969627;28;19965;-84
2023/05/13 07:54:09;;;;;;;;;;;;;;;13.67;100.00;96098.16;4963039;28;19949;-83
2023/05/13 07:56:39;;;;;;;;;;;;;;;13.75;100.00;96103.94;4965856;28;19947;-83
2023/05/13 07:59:06;;;;;;;;;;;;;;;13.78;100.00;96099.91;4980717;28;19988;-83
2023/05/13 08:01:32;;;;;;;;;;;;;;;13.82;100.00;96099.13;4970291;28;19946;-83
2023/05/13 08:03:59;;;;;;;;;;;;;;;13.91;100.00;96092.16;4969489;28;19939;-84
2023/05/13 08:06:26;;;;;;;;;;;;;;;13.95;100.00;96098.69;4961453;28;19945;-85
2023/05/13 08:08:53;;;;;;;;;;;;;;;13.95;100.00;96087.81;4965743;28;20008;-84
2023/05/13 08:11:20;;;;;;;;;;;;;;;13.98;100.00;96097.34;4970466;28;19957;-84
2023/05/13 08:13:48;;;;;;;;;;;;;;;14.03;100.00;96094.72;4967491;28;19944;-84
2023/05/13 08:16:15;;;;;;;;;;;;;;;14.05;100.00;96100.69;4967557;28;19957;-84
2023/05/13 08:18:42;;;;;;;;;;;;;;;14.09;100.00;96095.56;4971524;28;20338;-83
2023/05/13 08:21:09;;;;;;;;;;;;;;;14.10;100.00;96098.03;4965472;28;19949;-83
2023/05/13 08:23:36;;;;;;;;;;;;;;;14.12;100.00;96095.84;4961544;28;20007;-84
2023/05/13 08:26:03;;;;;;;;;;;;;;;14.12;100.00;96093.13;4968893;28;19946;-83
2023/05/13 08:28:31;;;;;;;;;;;;;;;14.13;100.00;96094.78;4966234;28;19945;-84
2023/05/13 08:31:01;;;;;;;;;;;;;;;14.30;100.00;96094.63;4964976;28;19944;-86
2023/05/13 08:33:28;;;;;;;;;;;;;;;14.47;100.00;96092.63;4970049;28;19956;-85
2023/05/13 08:35:55;;;;;;;;;;;;;;;14.54;100.00;96087.00;4984019;28;19953;-83
2023/05/13 08:38:22;;;;;;;;;;;;;;;14.74;100.00;96089.81;4983172;28;19946;-83
2023/05/13 08:40:49;;;;;;;;;;;;;;;14.93;100.00;96082.88;4976325;28;19953;-85
2023/05/13 08:43:16;;;;;;;;;;;;;;;15.03;100.00;96082.09;4973123;28;19956;-86
2023/05/13 08:45:45;;;;;;;;;;;;;;;15.15;100.00;96078.06;4971590;28;19950;-86
2023/05/13 08:48:15;;;;;;;;;;;;;;;15.23;100.00;96086.81;4966446;28;19946;-86
2023/05/13 08:50:42;;;;;;;;;;;;;;;15.27;100.00;96083.28;4982250;28;19969;-86
2023/05/13 08:53:10;;;;;;;;;;;;;;;15.38;100.00;96095.03;4967458;28;19922;-85
2023/05/13 08:55:38;;;;;;;;;;;;;;;15.54;100.00;96079.63;4965670;28;19977;-85
2023/05/13 08:58:05;;;;;;;;;;;;;;;15.61;100.00;96082.91;4961276;28;19922;-86
2023/05/13 09:00:33;;;;;;;;;;;;;;;15.71;100.00;96083.75;4968879;28;19962;-85
2023/05/13 09:02:59;;;;;;;;;;;;;;;15.85;100.00;96084.03;4979435;28;20064;-85
2023/05/13 09:05:28;;;;;;;;;;;;;;;15.89;100.00;96077.78;4968314;28;19950;-84
2023/05/13 09:07:55;;;;;;;;;;;;;;;15.85;100.00;96073.97;4970769;28;19944;-86
2023/05/13 09:10:21;;;;;;;;;;;;;;;15.82;100.00;96077.22;4982709;28;19959;-85
2023/05/13 09:12:49;;;;;;;;;;;;;;;15.92;100.00;96068.25;4961791;28;19963;-85
2023/05/13 09:15:17;;;;;;;;;;;;;;;16.19;100.00;96071.53;4955367;28;19956;-85
2023/05/13 09:17:45;;;;;;;;;;;;;;;16.41;100.00;96076.72;4965613;28;19964;-86
2023/05/13 09:20:13;;;;;;;;;;;;;;;16.44;100.00;96070.72;4965355;28;20016;-85
2023/05/13 09:22:44;;;;;;;;;;;;;;;16.43;100.00;96071.78;4970354;28;20034;-85
2023/05/13 09:25:14;;;;;;;;;;;;;;;16.55;100.00;96072.34;4967039;28;20048;-85
2023/05/13 09:27:42;;;;;;;;;;;;;;;16.66;100.00;96064.19;4954046;28;19945;-84
2023/05/13 09:30:10;;;;;;;;;;;;;;;16.70;100.00;96066.06;4980164;28;19955;-84
2023/05/13 09:32:36;;;;;;;;;;;;;;;16.71;100.00;96064.97;4967193;28;19996;-85
2023/05/13 09:35:12;;;;;;;;;;;;;;;16.82;100.00;96063.06;4962634;28;19961;-84
2023/05/13 09:37:39;;;;;;;;;;;;;;;16.86;100.00;96058.66;4967902;28;19956;-85
2023/05/13 09:40:11;;;;;;;;;;;;;;;16.90;100.00;96057.03;4968029;28;20043;-84
2023/05/13 09:42:40;;;;;;;;;;;;;;;16.90;100.00;96054.31;4971907;28;19950;-85
2023/05/13 09:45:09;;;;;;;;;;;;;;;16.78;100.00;96059.22;4968242;28;19957;-85
2023/05/13 09:47:36;;;;;;;;;;;;;;;16.75;100.00;96059.81;4964231;28;19953;-85
2023/05/13 09:50:03;;;;;;;;;;;;;;;16.57;100.00;96059.25;4967056;28;19945;-85
2023/05/13 09:52:30;;;;;;;;;;;;;;;16.48;100.00;96060.91;4958819;28;19961;-84
2023/05/13 09:54:58;;;;;;;;;;;;;;;16.62;100.00;96059.28;4967522;28;19992;-85
2023/05/13 09:57:28;;;;;;;;;;;;;;;16.68;100.00;96060.06;4977903;28;19970;-85
2023/05/13 09:59:59;;;;;;;;;;;;;;;16.74;100.00;96063.63;4961727;28;19946;-85
2023/05/13 10:02:27;;;;;;;;;;;;;;;16.79;100.00;96072.59;4979430;28;19945;-85
2023/05/13 10:04:55;;;;;;;;;;;;;;;16.85;100.00;96066.03;4981922;28;19952;-85
2023/05/13 10:07:24;;;;;;;;;;;;;;;16.88;100.00;96065.50;4952345;28;19995;-85
2023/05/13 10:09:53;;;;;;;;;;;;;;;17.01;100.00;96059.44;4970457;28;19947;-84
2023/05/13 10:12:20;;;;;;;;;;;;;;;17.11;100.00;96055.84;4956441;28;20036;-85
2023/05/13 10:14:49;;;;;;;;;;;;;;;17.24;100.00;96059.91;4977503;28;20121;-85
2023/05/13 10:17:16;;;;;;;;;;;;;;;17.40;100.00;96062.28;4968233;28;19962;-85
2023/05/13 10:19:43;;;;;;;;;;;;;;;17.33;97.95;96055.50;4972380;28;19963;-85
2023/05/13 10:22:10;;;;;;;;;;;;;;;17.46;100.00;96056.81;4974165;28;19953;-85
2023/05/13 10:24:39;;;;;;;;;;;;;;;17.47;99.90;96059.25;4972840;28;19942;-85
2023/05/13 10:27:06;;;;;;;;;;;;;;;17.64;97.03;96058.91;4970743;28;19997;-85
2023/05/13 10:29:34;;;;;;;;;;;;;;;17.75;97.73;96057.78;4968151;28;19945;-85
2023/05/13 10:32:02;;;;;;;;;;;;;;;17.94;96.33;96050.56;4974648;28;19951;-85
2023/05/13 10:34:32;;;;;;;;;;;;;;;17.87;92.46;96043.75;4971312;28;19963;-86
2023/05/13 10:37:09;;;;;;;;;;;;;;;17.89;93.35;96047.84;4969541;28;19947;-85
2023/05/13 10:39:49;;;;;;;;;;;;;;;17.94;93.40;96045.09;4954357;28;19981;-85
2023/05/13 10:42:34;;;;;;;;;;;;;;;17.94;94.00;96049.75;4963698;28;19950;-84
2023/05/13 10:45:01;;;;;;;;;;;;;;;18.05;94.88;96046.63;4951558;28;20001;-85
2023/05/13 10:47:32;;;;;;;;;;;;;;;18.36;93.93;96051.88;4958854;28;19929;-84
2023/05/13 10:50:03;;;;;;;;;;;;;;;18.42;91.13;96045.25;4975555;28;20003;-85
2023/05/13 10:52:41;;;;;;;;;;;;;;;18.45;89.33;96044.69;4978880;28;19965;-85
2023/05/13 10:55:15;;;;;;;;;;;;;;;18.35;90.41;96047.50;4954348;28;19962;-85
2023/05/13 10:57:42;;;;;;;;;;;;;;;18.45;90.32;96041.94;4972893;28;19926;-85
2023/05/13 11:00:16;;;;;;;;;;;;;;;18.56;90.29;96040.72;4976163;28;20058;-84
2023/05/13 11:02:44;;;;;;;;;;;;;;;18.63;90.31;96034.97;4964392;28;19922;-85
2023/05/13 11:05:18;;;;;;;;;;;;;;;18.66;89.70;96040.66;4971597;28;19922;-84
2023/05/13 11:07:54;;;;;;;;;;;;;;;18.71;87.50;96035.16;4970719;28;19944;-84
2023/05/13 11:10:26;;;;;;;;;;;;;;;18.93;89.75;96044.78;4984239;28;19958;-85
2023/05/13 11:13:09;;;;;;;;;;;;;;;19.15;87.67;96042.31;4954318;28;19922;-84
2023/05/13 11:15:45;;;;;;;;;;;;;;;19.12;84.63;96027.31;4961000;28;19974;-85
2023/05/13 11:18:15;;;;;;;;;;;;;;;18.66;87.20;96037.94;4965659;28;19969;-84
2023/05/13 11:20:45;;;;;;;;;;;;;;;18.53;87.40;96041.31;4963932;28;19969;-84
2023/05/13 11:23:16;;;;;;;;;;;;;;;18.73;87.87;96034.84;4970793;28;19929;-85
2023/05/13 11:25:44;;;;;;;;;;;;;;;18.80;88.11;96030.66;4966740;28;19922;-84
2023/05/13 11:28:15;;;;;;;;;;;;;;;19.04;86.98;96024.41;4972777;28;19953;-85
2023/05/13 11:30:52;;;;;;;;;;;;;;;19.35;86.28;96022.91;4964874;28;19966;-85
2023/05/13 11:33:21;;;;;;;;;;;;;;;19.43;83.41;96026.91;4954376;28;19965;-85
2023/05/13 11:35:53;;;;;;;;;;;;;;;19.42;82.79;96025.28;4959687;28;19968;-86
2023/05/13 11:38:22;;;;;;;;;;;;;;;19.35;85.38;96024.84;4965557;28;19946;-84
2023/05/13 11:40:49;;;;;;;;;;;;;;;19.35;85.61;96022.91;4984300;28;19953;-86
2023/05/13 11:43:19;;;;;;;;;;;;;;;19.43;83.36;96022.25;4978688;28;20191;-85
2023/05/13 11:45:45;;;;;;;;;;;;;;;19.14;84.63;96025.06;4969239;28;20006;-85
2023/05/13 11:48:19;;;;;;;;;;;;;;;19.20;84.30;96023.09;4981337;28;19951;-85
2023/05/13 11:50:47;;;;;;;;;;;;;;;19.18;82.70;96017.91;4968559;28;19951;-85
2023/05/13 11:53:19;;;;;;;;;;;;;;;18.94;84.94;96010.84;4968299;28;19922;-85
2023/05/13 11:55:46;;;;;;;;;;;;;;;18.69;86.86;96018.22;4954382;28;19961;-85
2023/05/13 11:58:13;;;;;;;;;;;;;;;18.90;86.52;96014.13;4959595;28;19950;-84
2023/05/13 12:00:40;;;;;;;;;;;;;;;19.17;85.65;96023.69;4982265;28;19976;-85
2023/05/13 12:03:09;;;;;;;;;;;;;;;19.40;83.96;96022.84;4967207;28;19949;-85
2023/05/13 12:05:36;;;;;;;;;;;;;;;19.26;81.54;96014.53;4969500;28;20043;-85
2023/05/13 12:08:06;;;;;;;;;;;;;;;18.97;82.00;96023.94;4969205;28;19955;-85
2023/05/13 12:10:34;;;;;;;;;;;;;;;18.37;83.22;96026.16;4970250;28;19942;-85
2023/05/13 12:13:01;;;;;;;;;;;;;;;18.43;86.75;96019.53;4967503;28;20047;-85
2023/05/13 12:15:28;;;;;;;;;;;;;;;18.49;84.33;96008.25;4958238;28;19949;-85
2023/05/13 12:17:56;;;;;;;;;;;;;;;18.73;85.84;96007.50;4964964;28;19963;-85
2023/05/13 12:20:23;;;;;;;;;;;;;;;18.64;84.88;96010.03;4960460;28;19947;-85
2023/05/13 12:22:52;;;;;;;;;;;;;;;18.36;85.16;96014.41;4964655;28;19955;-85
2023/05/13 12:25:37;;;;;;;;;;;;;;;18.32;83.97;96007.88;4965317;28;19963;-85
2023/05/13 12:28:08;;;;;;;;;;;;;;;18.66;81.61;96007.84;4984666;28;19943;-84
2023/05/13 12:30:36;;;;;;;;;;;;;;;19.10;81.13;96001.34;4969997;28;19951;-86
2023/05/13 12:33:04;;;;;;;;;;;;;;;19.00;79.31;96010.47;4974547;28;20036;-86
2023/05/13 12:35:31;;;;;;;;;;;;;;;18.74;81.08;96009.13;4968494;28;19945;-84
2023/05/13 12:38:01;;;;;;;;;;;;;;;18.39;82.70;96007.53;4993073;28;19945;-84
2023/05/13 12:40:29;;;;;;;;;;;;;;;18.13;82.98;96013.22;4991889;28;19948;-84
2023/05/13 12:42:59;;;;;;;;;;;;;;;17.88;84.96;96001.69;4968512;28;19948;-86
2023/05/13 12:45:31;;;;;;;;;;;;;;;17.70;84.69;96016.81;4966172;28;20009;-86
2023/05/13 12:47:58;;;;;;;;;;;;;;;17.61;86.51;96018.50;4960898;28;19991;-86